| time (UTC) | temp F | wind direction | speed MPH | gust MPH | rain 1hr in | rain 24hr in | rain mn in | humidity % | barometer mb |
| 20260504034241 | 46 | 283 | 0.0 | 0.0 | 0.00 | 0.20 | 0.20 | 87 | 1003.6 |
| 20260504033725 | 46 | 283 | 0.0 | 0.0 | 0.00 | 0.20 | 0.20 | 87 | 1003.6 |
| 20260504033238 | 47 | 283 | 0.0 | 0.0 | 0.00 | 0.20 | 0.20 | 87 | 1003.7 |
| 20260504032733 | 47 | 283 | 0.0 | 0.0 | 0.00 | 0.20 | 0.20 | 85 | 1003.9 |
| 20260504032246 | 48 | 216 | 0.0 | 0.0 | 0.00 | 0.20 | 0.20 | 84 | 1003.9 |
| 20260504031731 | 48 | 216 | 0.0 | 0.0 | 0.00 | 0.20 | 0.20 | 82 | 1003.9 |
| 20260504031243 | 48 | 216 | 0.0 | 0.0 | 0.00 | 0.20 | 0.20 | 82 | 1003.9 |
| 20260504030741 | 48 | 216 | 0.0 | 0.0 | 0.00 | 0.20 | 0.20 | 81 | 1003.9 |
| 20260504030223 | 48 | 216 | 0.0 | 0.0 | 0.00 | 0.20 | 0.20 | 79 | 1004.0 |
| 20260504025747 | 48 | 216 | 0.0 | 0.0 | 0.00 | 0.20 | 0.20 | 79 | 1003.9 |
| 20260504025233 | 48 | 216 | 0.0 | 0.0 | 0.00 | 0.20 | 0.20 | 81 | 1004.0 |
| 20260504024750 | 48 | 216 | 0.0 | 0.0 | 0.00 | 0.20 | 0.20 | 81 | 1003.9 |
| 20260504024233 | 48 | 216 | 0.0 | 0.0 | 0.00 | 0.20 | 0.20 | 82 | 1003.9 |
| 20260504023746 | 49 | 216 | 0.0 | 0.0 | 0.00 | 0.20 | 0.20 | 83 | 1003.9 |
| 20260504023226 | 49 | 216 | 0.0 | 0.0 | 0.01 | 0.20 | 0.20 | 83 | 1003.8 |
| 20260504022726 | 49 | 216 | 0.0 | 0.0 | 0.02 | 0.20 | 0.20 | 85 | 1003.8 |
| 20260504022238 | 49 | 216 | 0.0 | 0.0 | 0.04 | 0.20 | 0.20 | 86 | 1003.8 |
| 20260504021742 | 49 | 216 | 0.0 | 0.0 | 0.04 | 0.20 | 0.20 | 86 | 1003.7 |
| 20260504021224 | 49 | 216 | 0.0 | 0.0 | 0.04 | 0.20 | 0.20 | 87 | 1003.6 |
| 20260504020736 | 49 | 216 | 0.0 | 0.0 | 0.04 | 0.20 | 0.20 | 87 | 1003.6 |
| 20260504020249 | 50 | 212 | 0.0 | 6.0 | 0.04 | 0.20 | 0.20 | 88 | 1003.5 |
| 20260504015744 | 50 | 212 | 1.0 | 9.0 | 0.04 | 0.20 | 0.20 | 87 | 1003.4 |
| 20260504015243 | 50 | 233 | 7.0 | 9.0 | 0.04 | 0.20 | 0.20 | 87 | 1003.5 |
| 20260504014727 | 50 | 303 | 0.0 | 0.0 | 0.04 | 0.20 | 0.20 | 88 | 1003.6 |
| 20260504014239 | 49 | 5 | 0.0 | 0.0 | 0.04 | 0.20 | 0.20 | 85 | 1003.4 |
| 20260504013742 | 49 | 329 | 0.0 | 0.0 | 0.04 | 0.20 | 0.20 | 84 | 1003.5 |
| 20260504013227 | 49 | 329 | 0.0 | 0.0 | 0.03 | 0.19 | 0.19 | 85 | 1003.5 |
| 20260504012731 | 49 | 335 | 0.0 | 8.0 | 0.02 | 0.18 | 0.18 | 86 | 1003.9 |
| 20260504012243 | 49 | 335 | 4.0 | 8.0 | 0.00 | 0.16 | 0.16 | 87 | 1004.1 |
| 20260504011744 | 49 | 304 | 0.0 | 0.0 | 0.00 | 0.16 | 0.16 | 85 | 1003.9 |
| 20260504011244 | 49 | 200 | 0.0 | 0.0 | 0.00 | 0.16 | 0.16 | 85 | 1003.4 |
| 20260504010747 | 49 | 159 | 0.0 | 0.0 | 0.00 | 0.16 | 0.16 | 85 | 1003.1 |
| 20260504010250 | 49 | 160 | 0.0 | 8.0 | 0.00 | 0.16 | 0.16 | 84 | 1003.0 |
| 20260504005745 | 49 | 165 | 0.0 | 9.0 | 0.00 | 0.16 | 0.16 | 84 | 1003.0 |
| 20260504005248 | 49 | 181 | 1.0 | 9.0 | 0.00 | 0.16 | 0.16 | 83 | 1003.0 |
| 20260504004732 | 49 | 186 | 0.0 | 2.0 | 0.00 | 0.16 | 0.16 | 83 | 1003.1 |
| 20260504004244 | 49 | 157 | 0.0 | 2.0 | 0.00 | 0.16 | 0.16 | 83 | 1003.1 |
| 20260504003745 | 49 | 164 | 0.0 | 0.0 | 0.01 | 0.16 | 0.16 | 82 | 1003.1 |
| 20260504003249 | 49 | 202 | 0.0 | 0.0 | 0.04 | 0.16 | 0.16 | 83 | 1003.2 |
| 20260504002724 | 49 | 225 | 0.0 | 0.0 | 0.06 | 0.16 | 0.16 | 83 | 1003.1 |
| 20260504002236 | 49 | 225 | 0.0 | 0.0 | 0.09 | 0.16 | 0.16 | 83 | 1003.3 |
| 20260504001748 | 49 | 227 | 0.0 | 0.0 | 0.12 | 0.16 | 0.16 | 82 | 1003.2 |
| 20260504001231 | 49 | 227 | 0.0 | 10.0 | 0.13 | 0.16 | 0.16 | 81 | 1003.2 |
| 20260504000741 | 49 | 227 | 3.0 | 10.0 | 0.14 | 0.16 | 0.16 | 80 | 1003.3 |
| 20260504000226 | 48 | 254 | 0.0 | 0.0 | 0.14 | 0.16 | 0.16 | 81 | 1003.3 |
| 20260503235725 | 48 | 254 | 0.0 | 0.0 | 0.14 | 0.16 | 0.16 | 82 | 1003.4 |
| 20260503235236 | 48 | 254 | 0.0 | 4.0 | 0.14 | 0.16 | 0.16 | 83 | 1003.3 |
| 20260503234740 | 48 | 254 | 0.0 | 10.0 | 0.14 | 0.16 | 0.16 | 84 | 1003.0 |
| 20260503234243 | 48 | 256 | 0.0 | 11.0 | 0.14 | 0.16 | 0.16 | 85 | 1003.6 |
| 20260503233746 | 48 | 269 | 6.0 | 11.0 | 0.13 | 0.15 | 0.15 | 86 | 1004.2 |
| 20260503233249 | 48 | 266 | 8.0 | 11.0 | 0.10 | 0.12 | 0.12 | 87 | 1004.5 |
| 20260503232739 | 48 | 269 | 5.0 | 13.0 | 0.08 | 0.10 | 0.10 | 86 | 1004.6 |
| 20260503232242 | 49 | 286 | 8.0 | 15.0 | 0.05 | 0.07 | 0.07 | 84 | 1004.6 |
| 20260503231745 | 51 | 286 | 9.0 | 19.0 | 0.02 | 0.04 | 0.04 | 79 | 1004.6 |
| 20260503231229 | 54 | 311 | 10.0 | 19.0 | 0.01 | 0.03 | 0.03 | 72 | 1004.2 |
| 20260503230742 | 56 | 317 | 10.0 | 18.0 | 0.00 | 0.02 | 0.02 | 70 | 1003.9 |
| 20260503230225 | 56 | 244 | 11.0 | 18.0 | 0.00 | 0.02 | 0.02 | 67 | 1003.5 |
| 20260503225748 | 56 | 217 | 13.0 | 20.0 | 0.00 | 0.02 | 0.02 | 66 | 1003.3 |
| 20260503225230 | 57 | 209 | 11.0 | 20.0 | 0.00 | 0.02 | 0.02 | 66 | 1003.1 |
| 20260503224737 | 57 | 205 | 11.0 | 21.0 | 0.00 | 0.02 | 0.02 | 66 | 1002.9 |
| 20260503224241 | 57 | 205 | 12.0 | 29.0 | 0.00 | 0.02 | 0.02 | 66 | 1002.8 |
| 20260503223744 | 57 | 203 | 18.0 | 27.0 | 0.00 | 0.02 | 0.02 | 66 | 1002.7 |
| 20260503223247 | 57 | 211 | 14.0 | 24.0 | 0.00 | 0.02 | 0.02 | 66 | 1002.6 |
| 20260503222743 | 58 | 209 | 17.0 | 24.0 | 0.00 | 0.02 | 0.02 | 65 | 1002.5 |
| 20260503222228 | 58 | 194 | 17.0 | 28.0 | 0.00 | 0.02 | 0.02 | 65 | 1002.7 |
| 20260503221741 | 58 | 202 | 16.0 | 28.0 | 0.00 | 0.02 | 0.02 | 65 | 1002.6 |
| 20260503221241 | 58 | 196 | 14.0 | 33.0 | 0.00 | 0.02 | 0.02 | 65 | 1002.6 |
| 20260503220726 | 59 | 211 | 18.0 | 33.0 | 0.00 | 0.02 | 0.02 | 63 | 1002.6 |
| 20260503220240 | 59 | 198 | 16.0 | 26.0 | 0.00 | 0.02 | 0.02 | 63 | 1002.7 |
| 20260503215736 | 60 | 234 | 15.0 | 26.0 | 0.00 | 0.02 | 0.02 | 63 | 1002.7 |
| 20260503215250 | 59 | 207 | 18.0 | 30.0 | 0.00 | 0.02 | 0.02 | 63 | 1002.7 |
| 20260503214733 | 59 | 211 | 13.0 | 30.0 | 0.00 | 0.02 | 0.02 | 63 | 1002.7 |
| 20260503214246 | 59 | 200 | 15.0 | 27.0 | 0.00 | 0.02 | 0.02 | 63 | 1002.8 |
| 20260503213746 | 59 | 213 | 18.0 | 28.0 | 0.00 | 0.02 | 0.02 | 64 | 1002.8 |
| 20260503213249 | 59 | 228 | 14.0 | 22.0 | 0.00 | 0.02 | 0.02 | 63 | 1002.9 |
| 20260503212745 | 59 | 211 | 14.0 | 25.0 | 0.00 | 0.02 | 0.02 | 64 | 1003.0 |
| 20260503212249 | 59 | 184 | 16.0 | 27.0 | 0.00 | 0.02 | 0.02 | 64 | 1003.0 |
| 20260503211734 | 59 | 192 | 13.0 | 27.0 | 0.00 | 0.02 | 0.02 | 64 | 1003.1 |
| 20260503211251 | 59 | 183 | 16.0 | 25.0 | 0.00 | 0.02 | 0.02 | 64 | 1003.2 |
| 20260503210734 | 59 | 207 | 15.0 | 22.0 | 0.00 | 0.02 | 0.02 | 64 | 1003.3 |
| 20260503210247 | 58 | 196 | 17.0 | 24.0 | 0.00 | 0.02 | 0.02 | 65 | 1003.4 |
| 20260503205740 | 58 | 178 | 14.0 | 24.0 | 0.00 | 0.02 | 0.02 | 65 | 1003.4 |
| 20260503205242 | 58 | 221 | 14.0 | 23.0 | 0.00 | 0.02 | 0.02 | 65 | 1003.5 |
| 20260503204742 | 58 | 203 | 10.0 | 23.0 | 0.00 | 0.02 | 0.02 | 65 | 1003.6 |
| 20260503204253 | 58 | 209 | 12.0 | 21.0 | 0.00 | 0.02 | 0.02 | 65 | 1003.7 |
| 20260503203734 | 58 | 246 | 12.0 | 22.0 | 0.00 | 0.02 | 0.02 | 65 | 1003.9 |
| 20260503203252 | 58 | 215 | 14.0 | 22.0 | 0.00 | 0.02 | 0.02 | 66 | 1004.0 |
| 20260503202743 | 58 | 204 | 15.0 | 21.0 | 0.00 | 0.02 | 0.02 | 64 | 1004.1 |
| 20260503202243 | 58 | 228 | 8.0 | 20.0 | 0.00 | 0.02 | 0.02 | 64 | 1004.3 |
| 20260503201746 | 58 | 209 | 12.0 | 24.0 | 0.00 | 0.02 | 0.02 | 65 | 1004.4 |
| 20260503201248 | 58 | 221 | 14.0 | 24.0 | 0.00 | 0.02 | 0.02 | 63 | 1004.6 |
| 20260503200730 | 58 | 271 | 13.0 | 18.0 | 0.00 | 0.02 | 0.02 | 63 | 1004.6 |
| 20260503200242 | 58 | 202 | 13.0 | 22.0 | 0.00 | 0.02 | 0.02 | 61 | 1004.6 |
| 20260503195736 | 58 | 234 | 12.0 | 22.0 | 0.00 | 0.02 | 0.02 | 62 | 1004.8 |
| 20260503195248 | 58 | 233 | 17.0 | 24.0 | 0.00 | 0.02 | 0.02 | 61 | 1004.9 |
| 20260503194728 | 58 | 219 | 15.0 | 22.0 | 0.00 | 0.02 | 0.02 | 62 | 1005.0 |
| 20260503194239 | 58 | 226 | 16.0 | 21.0 | 0.00 | 0.02 | 0.02 | 61 | 1005.0 |
| 20260503193743 | 57 | 194 | 10.0 | 24.0 | 0.00 | 0.02 | 0.02 | 61 | 1005.0 |
| 20260503193246 | 57 | 202 | 11.0 | 24.0 | 0.00 | 0.02 | 0.02 | 62 | 1005.1 |
| 20260503192742 | 57 | 196 | 11.0 | 23.0 | 0.00 | 0.02 | 0.02 | 61 | 1005.1 |
| 20260503192244 | 58 | 215 | 17.0 | 23.0 | 0.00 | 0.02 | 0.02 | 60 | 1005.2 |
| 20260503191747 | 58 | 190 | 13.0 | 22.0 | 0.00 | 0.02 | 0.02 | 61 | 1005.3 |
| 20260503191226 | 57 | 259 | 13.0 | 23.0 | 0.00 | 0.02 | 0.02 | 62 | 1005.3 |
| 20260503190738 | 57 | 203 | 14.0 | 23.0 | 0.00 | 0.02 | 0.02 | 62 | 1005.3 |
| 20260503190241 | 57 | 211 | 13.0 | 22.0 | 0.00 | 0.02 | 0.02 | 63 | 1005.4 |
| 20260503185733 | 57 | 217 | 10.0 | 25.0 | 0.00 | 0.02 | 0.02 | 64 | 1005.4 |
| 20260503185251 | 56 | 218 | 17.0 | 24.0 | 0.00 | 0.02 | 0.02 | 64 | 1005.4 |
| 20260503184734 | 55 | 217 | 16.0 | 24.0 | 0.00 | 0.02 | 0.02 | 66 | 1005.5 |
| 20260503184246 | 55 | 252 | 13.0 | 23.0 | 0.00 | 0.02 | 0.02 | 66 | 1005.4 |
| 20260503183745 | 54 | 239 | 14.0 | 22.0 | 0.00 | 0.02 | 0.02 | 67 | 1005.5 |
| 20260503183250 | 54 | 191 | 13.0 | 25.0 | 0.00 | 0.02 | 0.02 | 69 | 1005.5 |
| 20260503182745 | 53 | 203 | 12.0 | 27.0 | 0.00 | 0.02 | 0.02 | 69 | 1005.6 |
| 20260503182250 | 53 | 206 | 11.0 | 22.0 | 0.00 | 0.02 | 0.02 | 70 | 1005.6 |
| 20260503181736 | 53 | 216 | 11.0 | 20.0 | 0.00 | 0.02 | 0.02 | 71 | 1005.7 |
| 20260503181250 | 52 | 209 | 12.0 | 20.0 | 0.00 | 0.02 | 0.02 | 72 | 1005.7 |
| 20260503180738 | 52 | 211 | 10.0 | 19.0 | 0.00 | 0.02 | 0.02 | 73 | 1005.8 |
| 20260503180251 | 52 | 198 | 8.0 | 20.0 | 0.00 | 0.02 | 0.02 | 75 | 1005.8 |
| 20260503175725 | 51 | 188 | 10.0 | 19.0 | 0.00 | 0.02 | 0.02 | 76 | 1005.9 |
| 20260503175239 | 51 | 209 | 9.0 | 16.0 | 0.00 | 0.02 | 0.02 | 78 | 1006.0 |
| 20260503174740 | 51 | 198 | 9.0 | 13.0 | 0.00 | 0.02 | 0.02 | 78 | 1006.1 |
| 20260503174228 | 50 | 174 | 8.0 | 13.0 | 0.00 | 0.02 | 0.02 | 79 | 1006.1 |
| 20260503173738 | 50 | 219 | 7.0 | 19.0 | 0.00 | 0.02 | 0.02 | 81 | 1006.1 |
| 20260503173250 | 50 | 210 | 11.0 | 19.0 | 0.00 | 0.02 | 0.02 | 81 | 1006.1 |
| 20260503172745 | 50 | 195 | 5.0 | 16.0 | 0.00 | 0.02 | 0.02 | 82 | 1006.3 |
| 20260503172229 | 50 | 201 | 8.0 | 16.0 | 0.00 | 0.02 | 0.02 | 83 | 1006.3 |
| 20260503171737 | 49 | 193 | 6.0 | 12.0 | 0.00 | 0.02 | 0.02 | 83 | 1006.4 |
| 20260503171242 | 49 | 215 | 8.0 | 13.0 | 0.00 | 0.02 | 0.02 | 82 | 1006.4 |
| 20260503170746 | 49 | 227 | 9.0 | 16.0 | 0.00 | 0.02 | 0.02 | 83 | 1006.6 |
| 20260503170230 | 49 | 223 | 9.0 | 14.0 | 0.00 | 0.02 | 0.02 | 83 | 1006.7 |
| 20260503150733 | 47 | 213 | 10.0 | 18.0 | 0.00 | 0.02 | 0.02 | 81 | 1007.1 |
| 20260503150247 | 47 | 220 | 10.0 | 18.0 | 0.00 | 0.02 | 0.02 | 81 | 1007.3 |
| 20260503140251 | 44 | 192 | 5.0 | 12.0 | 0.00 | 0.02 | 0.02 | 85 | 1007.4 |
| 20260503131249 | 41 | 139 | 3.0 | 9.0 | 0.01 | 0.02 | 0.02 | 87 | 1007.7 |
| 20260503130735 | 40 | 145 | 5.0 | 10.0 | 0.01 | 0.02 | 0.02 | 86 | 1007.9 |
| 20260503130250 | 40 | 142 | 5.0 | 10.0 | 0.01 | 0.02 | 0.02 | 86 | 1007.8 |
| 20260503110735 | 36 | 139 | 2.0 | 7.0 | 0.00 | 0.00 | 0.00 | 78 | 1008.8 |
| 20260503110250 | 35 | 138 | 4.0 | 7.0 | 0.00 | 0.00 | 0.00 | 80 | 1008.7 |
| 20260503100249 | 31 | 126 | 4.0 | 7.0 | 0.00 | 0.00 | 0.00 | 87 | 1009.0 |
| 20260503090248 | 29 | 315 | 0.0 | 0.0 | 0.00 | 0.00 | 0.00 | 89 | 1010.0 |
| 20260503081225 | 29 | 315 | 0.0 | 0.0 | 0.00 | 0.00 | 0.00 | 89 | 1010.5 |
| 20260503080737 | 29 | 315 | 0.0 | 0.0 | 0.00 | 0.00 | 0.00 | 89 | 1010.6 |
| 20260503080245 | 29 | 315 | 0.0 | 0.0 | 0.00 | 0.00 | 0.00 | 89 | 1010.7 |
| 20260503072743 | 29 | 315 | 0.0 | 0.0 | 0.00 | 0.00 | 0.00 | 89 | 1011.1 |
| 20260503072250 | 29 | 315 | 0.0 | 3.0 | 0.00 | 0.00 | 0.00 | 89 | 1011.2 |
| 20260503071738 | 29 | 315 | 0.0 | 4.0 | 0.00 | 0.00 | 0.00 | 89 | 1011.2 |
| 20260503071225 | 29 | 315 | 2.0 | 4.0 | 0.00 | 0.00 | 0.00 | 89 | 1011.2 |
| 20260503070741 | 29 | 315 | 2.0 | 3.0 | 0.00 | 0.00 | 0.00 | 89 | 1011.3 |
| 20260503070228 | 29 | 315 | 0.0 | 0.0 | 0.00 | 0.00 | 0.00 | 89 | 1011.4 |
| 20260503060249 | 30 | 315 | 0.0 | 0.0 | 0.00 | 0.00 | 0.00 | 88 | 1012.5 |
| 20260503054739 | 30 | 315 | 0.0 | 0.0 | 0.00 | 0.00 | 0.00 | 87 | 1012.7 |
| 20260503054246 | 30 | 315 | 0.0 | 0.0 | 0.00 | 0.00 | 0.00 | 86 | 1012.7 |
| 20260503053731 | 30 | 315 | 0.0 | 0.0 | 0.00 | 0.00 | 0.00 | 84 | 1012.7 |
| 20260503053246 | 31 | 315 | 0.0 | 0.0 | 0.00 | 0.00 | 0.00 | 85 | 1012.8 |
| 20260503052744 | 31 | 315 | 0.0 | 0.0 | 0.00 | 0.00 | 0.00 | 86 | 1012.8 |
| 20260503052226 | 31 | 315 | 0.0 | 0.0 | 0.00 | 0.00 | 0.00 | 86 | 1012.9 |
| 20260503051741 | 31 | 315 | 0.0 | 0.0 | 0.00 | 0.00 | 0.00 | 85 | 1012.9 |
| 20260503051247 | 31 | 315 | 0.0 | 0.0 | 0.00 | 0.00 | 0.00 | 85 | 1013.0 |
| 20260503050731 | 31 | 315 | 0.0 | 0.0 | 0.00 | 0.00 | 0.00 | 87 | 1013.0 |
| 20260503050244 | 31 | 315 | 0.0 | 8.0 | 0.00 | 0.00 | 0.00 | 87 | 1013.1 |
| 20260503045742 | 30 | 315 | 3.0 | 8.0 | 0.00 | 0.00 | 0.00 | 89 | 1013.1 |
| 20260503045228 | 30 | 315 | 0.0 | 0.0 | 0.00 | 0.00 | 0.00 | 89 | 1013.1 |
| 20260503044744 | 30 | 315 | 0.0 | 0.0 | 0.00 | 0.00 | 0.00 | 89 | 1013.1 |
| 20260503044246 | 30 | 315 | 0.0 | 0.0 | 0.00 | 0.00 | 0.00 | 89 | 1013.1 |
| 20260503043731 | 30 | 315 | 0.0 | 0.0 | 0.00 | 0.00 | 0.00 | 89 | 1013.2 |
| 20260503043246 | 30 | 315 | 0.0 | 0.0 | 0.00 | 0.00 | 0.00 | 89 | 1013.2 |
| 20260503042744 | 30 | 315 | 0.0 | 0.0 | 0.00 | 0.00 | 0.00 | 89 | 1013.2 |
| 20260503042231 | 30 | 315 | 0.0 | 0.0 | 0.00 | 0.00 | 0.00 | 89 | 1013.3 |
| 20260503041746 | 30 | 315 | 0.0 | 0.0 | 0.00 | 0.00 | 0.00 | 89 | 1013.3 |
| 20260503041233 | 31 | 315 | 0.0 | 0.0 | 0.00 | 0.00 | 0.00 | 89 | 1013.3 |
| 20260503040748 | 31 | 315 | 0.0 | 0.0 | 0.00 | 0.00 | 0.00 | 89 | 1013.4 |
| 20260503040250 | 30 | 315 | 0.0 | 0.0 | 0.00 | 0.00 | 0.00 | 89 | 1013.5 |
| 20260503035740 | 30 | 315 | 0.0 | 0.0 | 0.00 | 0.00 | 0.00 | 89 | 1013.5 |
| 20260503035247 | 30 | 315 | 0.0 | 0.0 | 0.00 | 0.00 | 0.00 | 89 | 1013.4 |
| 20260503034732 | 31 | 315 | 0.0 | 0.0 | 0.00 | 0.00 | 0.00 | 89 | 1013.5 |